Time,TemperatureF,DewpointF,PressureIn,WindDirection,WindDirectionDegrees,WindSpeedMPH,WindSpeedGustMPH,Humidity,HourlyPrecipIn,Conditions,Clouds,dailyrainin,SoftwareType,DateUTC
2013-04-09 00:00:00,67.5,64.8,29.92,ESE,113,0.0,-999.0,91,0.00,,,0.00,WeatherSnoop3.0,2013-04-09 05:00:00,
2013-04-09 00:05:00,67.5,64.8,29.92,ESE,110,0.0,-999.0,91,0.00,,,0.00,WeatherSnoop3.0,2013-04-09 05:05:00,
2013-04-09 00:10:00,67.4,64.7,29.92,ESE,120,0.0,-999.0,91,0.00,,,0.00,WeatherSnoop3.0,2013-04-09 05:10:00,
2013-04-09 00:15:00,67.4,64.7,29.92,ESE,116,0.0,-999.0,91,0.00,,,0.00,WeatherSnoop3.0,2013-04-09 05:15:00,
2013-04-09 00:20:00,67.4,64.7,29.92,ESE,121,0.0,-999.0,91,0.00,,,0.00,WeatherSnoop3.0,2013-04-09 05:20:00,
2013-04-09 00:25:00,67.4,65.0,29.92,SE,126,0.0,-999.0,92,0.00,,,0.00,WeatherSnoop3.0,2013-04-09 05:25:00,
2013-04-09 00:30:00,67.5,65.1,29.92,SE,127,0.0,-999.0,92,0.00,,,0.00,WeatherSnoop3.0,2013-04-09 05:30:00,
2013-04-09 00:35:00,67.5,65.1,29.92,ESE,112,0.0,-999.0,92,0.00,,,0.00,WeatherSnoop3.0,2013-04-09 05:35:00,
2013-04-09 00:40:00,67.5,65.1,29.92,ESE,115,0.0,-999.0,92,0.00,,,0.00,WeatherSnoop3.0,2013-04-09 05:40:00,
2013-04-09 00:45:00,67.6,65.2,29.92,ESE,121,0.0,-999.0,92,0.00,,,0.00,WeatherSnoop3.0,2013-04-09 05:45:00,
2013-04-09 00:50:00,67.7,65.3,29.92,SE,124,0.0,-999.0,92,0.00,,,0.00,WeatherSnoop3.0,2013-04-09 05:50:00,
2013-04-09 00:55:00,67.7,65.3,29.92,ESE,112,0.0,-999.0,92,0.00,,,0.00,WeatherSnoop3.0,2013-04-09 05:55:00,
2013-04-09 01:00:00,67.8,65.4,29.92,ESE,120,0.0,-999.0,92,0.00,,,0.00,WeatherSnoop3.0,2013-04-09 06:00:00,
2013-04-09 01:05:00,67.9,65.5,29.91,ESE,123,0.0,-999.0,92,0.00,,,0.00,WeatherSnoop3.0,2013-04-09 06:05:00,
2013-04-09 01:10:00,67.9,65.5,29.91,ESE,122,0.0,-999.0,92,0.00,,,0.00,WeatherSnoop3.0,2013-04-09 06:10:00,
2013-04-09 01:15:00,67.9,65.5,29.91,ESE,123,0.0,-999.0,92,0.00,,,0.00,WeatherSnoop3.0,2013-04-09 06:15:00,
2013-04-09 01:20:00,67.9,65.5,29.91,SE,126,0.0,-999.0,92,0.00,,,0.00,WeatherSnoop3.0,2013-04-09 06:20:00,
2013-04-09 01:25:00,67.9,65.5,29.91,SE,132,0.0,-999.0,92,0.00,,,0.00,WeatherSnoop3.0,2013-04-09 06:25:00,
2013-04-09 01:30:00,67.9,65.5,29.91,ESE,113,0.0,-999.0,92,0.00,,,0.00,WeatherSnoop3.0,2013-04-09 06:30:00,
2013-04-09 01:35:00,67.9,65.5,29.91,ESE,109,0.0,-999.0,92,0.00,,,0.00,WeatherSnoop3.0,2013-04-09 06:35:00,
2013-04-09 01:40:00,68.0,65.9,29.90,ESE,103,0.0,-999.0,93,0.00,,,0.00,WeatherSnoop3.0,2013-04-09 06:40:00,
2013-04-09 01:45:00,68.0,65.9,29.90,ESE,107,0.0,-999.0,93,0.00,,,0.00,WeatherSnoop3.0,2013-04-09 06:45:00,
2013-04-09 01:50:00,68.0,65.9,29.90,ESE,108,0.0,-999.0,93,0.00,,,0.00,WeatherSnoop3.0,2013-04-09 06:50:00,
2013-04-09 01:55:00,67.9,65.8,29.90,ESE,117,0.0,-999.0,93,0.00,,,0.00,WeatherSnoop3.0,2013-04-09 06:55:00,
2013-04-09 02:00:00,67.9,65.8,29.90,ESE,118,0.0,-999.0,93,0.00,,,0.00,WeatherSnoop3.0,2013-04-09 07:00:00,
2013-04-09 02:05:00,67.9,65.8,29.90,ESE,117,0.0,-999.0,93,0.00,,,0.00,WeatherSnoop3.0,2013-04-09 07:05:00,
2013-04-09 02:10:00,67.9,65.8,29.89,ESE,105,0.0,-999.0,93,0.00,,,0.00,WeatherSnoop3.0,2013-04-09 07:10:00,
2013-04-09 02:15:00,67.8,65.7,29.89,ESE,115,0.0,-999.0,93,0.00,,,0.00,WeatherSnoop3.0,2013-04-09 07:15:00,
2013-04-09 02:20:00,67.7,65.6,29.89,ESE,119,0.0,-999.0,93,0.00,,,0.00,WeatherSnoop3.0,2013-04-09 07:20:00,
2013-04-09 02:25:00,67.7,65.6,29.89,ESE,119,0.0,-999.0,93,0.00,,,0.00,WeatherSnoop3.0,2013-04-09 07:25:00,
2013-04-09 02:30:00,67.6,65.5,29.88,ESE,119,0.0,-999.0,93,0.00,,,0.00,WeatherSnoop3.0,2013-04-09 07:30:00,
2013-04-09 02:35:00,67.4,65.3,29.88,ESE,111,0.0,-999.0,93,0.00,,,0.00,WeatherSnoop3.0,2013-04-09 07:35:00,
2013-04-09 02:40:00,67.2,65.1,29.88,ESE,117,0.0,-999.0,93,0.00,,,0.00,WeatherSnoop3.0,2013-04-09 07:40:00,
2013-04-09 02:45:00,67.2,65.1,29.88,ESE,121,0.0,-999.0,93,0.00,,,0.00,WeatherSnoop3.0,2013-04-09 07:45:00,
2013-04-09 02:50:00,67.2,65.1,29.88,ESE,113,0.0,-999.0,93,0.00,,,0.00,WeatherSnoop3.0,2013-04-09 07:50:00,
2013-04-09 02:55:00,67.1,65.0,29.88,ESE,113,0.0,-999.0,93,0.00,,,0.00,WeatherSnoop3.0,2013-04-09 07:55:00,
2013-04-09 03:00:00,67.1,65.3,29.88,ESE,114,0.0,-999.0,94,0.00,,,0.00,WeatherSnoop3.0,2013-04-09 08:00:00,
2013-04-09 03:05:00,67.0,65.2,29.88,ESE,113,0.0,-999.0,94,0.00,,,0.00,WeatherSnoop3.0,2013-04-09 08:05:00,
2013-04-09 03:10:00,67.0,65.2,29.87,ESE,112,0.0,-999.0,94,0.00,,,0.00,WeatherSnoop3.0,2013-04-09 08:10:00,
2013-04-09 03:15:00,66.9,65.1,29.88,ESE,113,0.0,-999.0,94,0.00,,,0.00,WeatherSnoop3.0,2013-04-09 08:15:00,
2013-04-09 03:20:00,66.9,65.1,29.87,ESE,118,0.0,-999.0,94,0.00,,,0.00,WeatherSnoop3.0,2013-04-09 08:20:00,
2013-04-09 03:25:00,66.9,65.1,29.87,East,92,0.0,-999.0,94,0.00,,,0.00,WeatherSnoop3.0,2013-04-09 08:25:00,
2013-04-09 03:30:00,66.8,65.0,29.87,ESE,116,0.0,-999.0,94,0.00,,,0.00,WeatherSnoop3.0,2013-04-09 08:30:00,
2013-04-09 03:35:00,66.7,65.2,29.87,ESE,115,0.0,-999.0,95,0.00,,,0.00,WeatherSnoop3.0,2013-04-09 08:35:00,
2013-04-09 03:40:00,66.8,65.3,29.87,ESE,115,0.0,-999.0,95,0.00,,,0.00,WeatherSnoop3.0,2013-04-09 08:40:00,
2013-04-09 03:45:00,66.7,65.2,29.87,ESE,109,0.0,-999.0,95,0.00,,,0.00,WeatherSnoop3.0,2013-04-09 08:45:00,
2013-04-09 03:50:00,66.7,65.2,29.86,ESE,109,0.0,-999.0,95,0.00,,,0.00,WeatherSnoop3.0,2013-04-09 08:50:00,
2013-04-09 03:55:00,66.6,65.1,29.86,ESE,109,0.0,-999.0,95,0.00,,,0.00,WeatherSnoop3.0,2013-04-09 08:55:00,
2013-04-09 04:00:00,66.5,65.0,29.87,ESE,109,0.0,-999.0,95,0.00,,,0.00,WeatherSnoop3.0,2013-04-09 09:00:00,
2013-04-09 04:05:00,66.6,65.1,29.87,ESE,109,0.0,-999.0,95,0.00,,,0.00,WeatherSnoop3.0,2013-04-09 09:05:00,
2013-04-09 04:10:00,66.6,65.1,29.87,ESE,109,0.0,-999.0,95,0.00,,,0.00,WeatherSnoop3.0,2013-04-09 09:10:00,
2013-04-09 04:15:00,66.6,65.1,29.87,ESE,108,0.0,-999.0,95,0.00,,,0.00,WeatherSnoop3.0,2013-04-09 09:15:00,
2013-04-09 04:20:00,66.5,65.0,29.87,ESE,109,0.0,-999.0,95,0.00,,,0.00,WeatherSnoop3.0,2013-04-09 09:20:00,
2013-04-09 04:25:00,66.4,64.9,29.88,ESE,108,0.0,-999.0,95,0.00,,,0.00,WeatherSnoop3.0,2013-04-09 09:25:00,
2013-04-09 04:30:00,66.2,64.7,29.88,ESE,109,0.0,-999.0,95,0.00,,,0.00,WeatherSnoop3.0,2013-04-09 09:30:00,
2013-04-09 04:35:00,66.0,64.5,29.88,ESE,109,0.0,-999.0,95,0.00,,,0.00,WeatherSnoop3.0,2013-04-09 09:35:00,
2013-04-09 04:40:00,66.1,64.6,29.88,ESE,109,0.0,-999.0,95,0.00,,,0.00,WeatherSnoop3.0,2013-04-09 09:40:00,
2013-04-09 04:45:00,66.3,65.1,29.88,ESE,113,0.0,-999.0,96,0.00,,,0.00,WeatherSnoop3.0,2013-04-09 09:45:00,
2013-04-09 04:50:00,66.4,65.2,29.88,ESE,117,0.0,-999.0,96,0.00,,,0.00,WeatherSnoop3.0,2013-04-09 09:50:00,
2013-04-09 04:55:00,66.5,65.3,29.88,ESE,113,0.0,-999.0,96,0.00,,,0.00,WeatherSnoop3.0,2013-04-09 09:55:00,
2013-04-09 05:01:00,66.5,65.3,29.88,ESE,121,0.0,-999.0,96,0.00,,,0.00,WeatherSnoop3.0,2013-04-09 10:01:00,
2013-04-09 05:06:00,66.6,65.4,29.88,SE,124,0.0,-999.0,96,0.00,,,0.00,WeatherSnoop3.0,2013-04-09 10:06:00,
2013-04-09 05:11:00,66.6,65.4,29.89,ESE,122,0.0,-999.0,96,0.00,,,0.00,WeatherSnoop3.0,2013-04-09 10:11:00,
2013-04-09 05:16:00,66.6,65.4,29.89,ESE,109,0.0,-999.0,96,0.00,,,0.00,WeatherSnoop3.0,2013-04-09 10:16:00,
2013-04-09 05:21:00,66.6,65.4,29.89,ESE,111,0.0,-999.0,96,0.00,,,0.00,WeatherSnoop3.0,2013-04-09 10:21:00,
2013-04-09 05:26:00,66.6,65.4,29.89,ESE,123,0.0,-999.0,96,0.00,,,0.00,WeatherSnoop3.0,2013-04-09 10:26:00,
2013-04-09 05:31:00,66.6,65.4,29.89,ESE,108,0.0,-999.0,96,0.00,,,0.00,WeatherSnoop3.0,2013-04-09 10:31:00,
2013-04-09 05:36:00,66.7,65.5,29.89,SE,144,0.0,-999.0,96,0.00,,,0.00,WeatherSnoop3.0,2013-04-09 10:36:00,
2013-04-09 05:41:00,66.9,65.7,29.89,SE,130,0.0,-999.0,96,0.00,,,0.00,WeatherSnoop3.0,2013-04-09 10:41:00,
2013-04-09 05:46:00,67.0,65.8,29.89,ESE,120,0.0,-999.0,96,0.00,,,0.00,WeatherSnoop3.0,2013-04-09 10:46:00,
2013-04-09 05:51:00,67.2,66.0,29.89,SE,136,0.0,-999.0,96,0.00,,,0.00,WeatherSnoop3.0,2013-04-09 10:51:00,
2013-04-09 05:56:00,67.5,66.3,29.89,SE,128,0.0,-999.0,96,0.00,,,0.00,WeatherSnoop3.0,2013-04-09 10:56:00,
2013-04-09 06:01:00,67.5,66.3,29.89,SE,132,0.0,-999.0,96,0.00,,,0.00,WeatherSnoop3.0,2013-04-09 11:01:00,
2013-04-09 06:07:00,67.7,66.8,29.90,ESE,117,0.0,-999.0,97,0.00,,,0.00,WeatherSnoop3.0,2013-04-09 11:07:00,
2013-04-09 06:12:00,68.0,66.8,29.90,SE,134,0.0,-999.0,96,0.00,,,0.00,WeatherSnoop3.0,2013-04-09 11:12:00,
2013-04-09 06:17:00,68.2,67.0,29.90,SE,131,0.0,-999.0,96,0.00,,,0.00,WeatherSnoop3.0,2013-04-09 11:17:00,
2013-04-09 06:22:00,68.4,67.2,29.90,SE,140,0.0,-999.0,96,0.00,,,0.00,WeatherSnoop3.0,2013-04-09 11:22:00,
2013-04-09 06:27:00,68.7,67.5,29.90,SE,141,0.0,-999.0,96,0.00,,,0.00,WeatherSnoop3.0,2013-04-09 11:27:00,
2013-04-09 06:32:00,69.0,67.8,29.90,ESE,117,0.0,-999.0,96,0.00,,,0.00,WeatherSnoop3.0,2013-04-09 11:32:00,
2013-04-09 06:37:00,69.4,68.2,29.91,SSE,149,0.0,-999.0,96,0.00,,,0.00,WeatherSnoop3.0,2013-04-09 11:37:00,
2013-04-09 06:42:00,69.6,68.4,29.91,SE,142,0.0,-999.0,96,0.00,,,0.00,WeatherSnoop3.0,2013-04-09 11:42:00,
2013-04-09 06:47:00,69.7,68.2,29.91,SE,145,0.0,-999.0,95,0.00,,,0.00,WeatherSnoop3.0,2013-04-09 11:47:00,
2013-04-09 06:52:00,69.9,68.4,29.91,SE,139,0.0,-999.0,95,0.00,,,0.00,WeatherSnoop3.0,2013-04-09 11:52:00,
2013-04-09 06:57:00,70.0,68.5,29.91,SSE,159,0.0,-999.0,95,0.00,,,0.00,WeatherSnoop3.0,2013-04-09 11:57:00,
2013-04-09 07:02:00,70.2,68.7,29.91,SSE,156,0.0,-999.0,95,0.00,,,0.00,WeatherSnoop3.0,2013-04-09 12:02:00,
2013-04-09 07:07:00,70.2,68.7,29.91,SE,133,0.0,-999.0,95,0.00,,,0.00,WeatherSnoop3.0,2013-04-09 12:07:00,
2013-04-09 07:12:00,70.4,68.6,29.91,SE,136,0.0,-999.0,94,0.00,,,0.00,WeatherSnoop3.0,2013-04-09 12:12:00,
2013-04-09 07:17:00,70.5,68.7,29.91,SE,142,0.0,-999.0,94,0.00,,,0.00,WeatherSnoop3.0,2013-04-09 12:17:00,
2013-04-09 07:22:00,70.8,69.0,29.91,SE,129,0.0,-999.0,94,0.00,,,0.00,WeatherSnoop3.0,2013-04-09 12:22:00,
2013-04-09 07:27:00,71.0,69.2,29.91,SE,138,0.0,-999.0,94,0.00,,,0.00,WeatherSnoop3.0,2013-04-09 12:27:00,
2013-04-09 07:32:00,71.2,69.4,29.91,SE,145,0.0,-999.0,94,0.00,,,0.00,WeatherSnoop3.0,2013-04-09 12:32:00,
2013-04-09 07:37:00,71.4,69.6,29.91,SE,139,0.0,-999.0,94,0.00,,,0.00,WeatherSnoop3.0,2013-04-09 12:37:00,
2013-04-09 07:42:00,71.6,69.8,29.91,SSE,152,0.0,-999.0,94,0.00,,,0.00,WeatherSnoop3.0,2013-04-09 12:42:00,
2013-04-09 07:47:00,71.8,69.7,29.90,SE,140,0.0,-999.0,93,0.00,,,0.00,WeatherSnoop3.0,2013-04-09 12:47:00,
2013-04-09 07:52:00,71.9,69.8,29.90,ESE,111,0.0,-999.0,93,0.00,,,0.00,WeatherSnoop3.0,2013-04-09 12:52:00,
2013-04-09 07:57:00,72.1,70.0,29.90,SE,144,0.0,-999.0,93,0.00,,,0.00,WeatherSnoop3.0,2013-04-09 12:57:00,
2013-04-09 08:02:00,72.3,70.2,29.90,SE,146,0.0,-999.0,93,0.00,,,0.00,WeatherSnoop3.0,2013-04-09 13:02:00,
2013-04-09 08:07:00,72.5,70.4,29.90,SSE,155,0.0,-999.0,93,0.00,,,0.00,WeatherSnoop3.0,2013-04-09 13:07:00,
2013-04-09 08:12:00,72.7,70.6,29.90,SE,138,0.0,-999.0,93,0.00,,,0.00,WeatherSnoop3.0,2013-04-09 13:12:00,
2013-04-09 08:17:00,72.9,70.8,29.90,SSE,149,0.0,-999.0,93,0.00,,,0.00,WeatherSnoop3.0,2013-04-09 13:17:00,
2013-04-09 08:22:00,73.2,70.7,29.91,SSE,156,0.0,-999.0,92,0.00,,,0.00,WeatherSnoop3.0,2013-04-09 13:22:00,
2013-04-09 08:27:00,73.4,70.9,29.90,SE,139,0.0,-999.0,92,0.00,,,0.00,WeatherSnoop3.0,2013-04-09 13:27:00,
2013-04-09 08:32:00,73.6,71.1,29.91,SSE,150,0.0,-999.0,92,0.00,,,0.00,WeatherSnoop3.0,2013-04-09 13:32:00,
2013-04-09 08:37:00,73.9,71.1,29.91,SE,128,0.0,-999.0,91,0.00,,,0.00,WeatherSnoop3.0,2013-04-09 13:37:00,
2013-04-09 08:42:00,74.1,71.3,29.91,ESE,119,0.0,-999.0,91,0.00,,,0.00,WeatherSnoop3.0,2013-04-09 13:42:00,
2013-04-09 08:47:00,74.3,71.5,29.91,SSE,156,0.0,-999.0,91,0.00,,,0.00,WeatherSnoop3.0,2013-04-09 13:47:00,
2013-04-09 08:52:00,74.5,71.4,29.91,SSE,163,0.0,-999.0,90,0.00,,,0.00,WeatherSnoop3.0,2013-04-09 13:52:00,
2013-04-09 08:57:00,74.6,71.5,29.91,ESE,118,0.0,-999.0,90,0.00,,,0.00,WeatherSnoop3.0,2013-04-09 13:57:00,
2013-04-09 09:02:00,74.8,71.7,29.91,South,179,0.0,-999.0,90,0.00,,,0.00,WeatherSnoop3.0,2013-04-09 14:02:00,
2013-04-09 09:07:00,74.9,71.4,29.91,SE,133,0.0,-999.0,89,0.00,,,0.00,WeatherSnoop3.0,2013-04-09 14:07:00,
2013-04-09 09:12:00,75.0,71.5,29.91,South,176,0.0,-999.0,89,0.00,,,0.00,WeatherSnoop3.0,2013-04-09 14:12:00,
2013-04-09 09:17:00,75.0,71.5,29.92,SE,132,0.0,-999.0,89,0.00,,,0.00,WeatherSnoop3.0,2013-04-09 14:17:00,
2013-04-09 09:22:00,75.1,71.6,29.92,SSE,149,0.0,-999.0,89,0.00,,,0.00,WeatherSnoop3.0,2013-04-09 14:22:00,
2013-04-09 09:27:00,75.4,71.9,29.92,SSE,155,0.0,-999.0,89,0.00,,,0.00,WeatherSnoop3.0,2013-04-09 14:27:00,
2013-04-09 09:32:00,75.7,72.2,29.92,South,180,0.0,-999.0,89,0.00,,,0.00,WeatherSnoop3.0,2013-04-09 14:32:00,
2013-04-09 09:37:00,75.7,71.9,29.92,SE,124,0.0,-999.0,88,0.00,,,0.00,WeatherSnoop3.0,2013-04-09 14:37:00,
2013-04-09 09:42:00,75.8,72.0,29.92,SE,141,0.0,-999.0,88,0.00,,,0.00,WeatherSnoop3.0,2013-04-09 14:42:00,
2013-04-09 09:47:00,76.2,72.0,29.92,SE,139,0.0,-999.0,87,0.00,,,0.00,WeatherSnoop3.0,2013-04-09 14:47:00,
2013-04-09 09:52:00,76.4,72.2,29.92,ESE,121,0.0,-999.0,87,0.00,,,0.00,WeatherSnoop3.0,2013-04-09 14:52:00,
2013-04-09 09:57:00,76.4,71.9,29.92,SE,130,0.0,-999.0,86,0.00,,,0.00,WeatherSnoop3.0,2013-04-09 14:57:00,
2013-04-09 10:02:00,76.4,71.9,29.92,South,173,0.0,-999.0,86,0.00,,,0.00,WeatherSnoop3.0,2013-04-09 15:02:00,
2013-04-09 10:07:00,76.6,72.4,29.92,SE,133,0.0,-999.0,87,0.00,,,0.00,WeatherSnoop3.0,2013-04-09 15:07:00,
2013-04-09 10:12:00,76.7,72.2,29.93,ESE,111,0.0,-999.0,86,0.00,,,0.00,WeatherSnoop3.0,2013-04-09 15:12:00,
2013-04-09 10:17:00,76.9,72.4,29.93,SSE,165,0.0,-999.0,86,0.00,,,0.00,WeatherSnoop3.0,2013-04-09 15:17:00,
2013-04-09 10:22:00,77.1,72.6,29.93,SE,134,0.0,-999.0,86,0.00,,,0.00,WeatherSnoop3.0,2013-04-09 15:22:00,
2013-04-09 10:27:00,77.0,72.5,29.93,SSE,157,0.0,-999.0,86,0.00,,,0.00,WeatherSnoop3.0,2013-04-09 15:27:00,
2013-04-09 10:32:00,77.3,72.8,29.93,SE,132,0.0,-999.0,86,0.00,,,0.00,WeatherSnoop3.0,2013-04-09 15:32:00,
2013-04-09 10:37:00,77.5,72.6,29.93,ESE,120,0.0,-999.0,85,0.00,,,0.00,WeatherSnoop3.0,2013-04-09 15:37:00,
2013-04-09 10:42:00,77.6,72.7,29.93,ESE,123,0.0,-999.0,85,0.00,,,0.00,WeatherSnoop3.0,2013-04-09 15:42:00,
2013-04-09 10:47:00,77.6,72.7,29.93,SE,142,0.0,-999.0,85,0.00,,,0.00,WeatherSnoop3.0,2013-04-09 15:47:00,
2013-04-09 10:52:00,77.7,72.8,29.93,SE,132,0.0,-999.0,85,0.00,,,0.00,WeatherSnoop3.0,2013-04-09 15:52:00,
2013-04-09 10:57:00,77.6,72.4,29.94,ESE,118,0.0,-999.0,84,0.00,,,0.00,WeatherSnoop3.0,2013-04-09 15:57:00,
2013-04-09 11:02:00,77.4,72.2,29.94,SE,133,0.0,-999.0,84,0.00,,,0.00,WeatherSnoop3.0,2013-04-09 16:02:00,
2013-04-09 11:07:00,77.5,72.3,29.94,SE,142,0.0,-999.0,84,0.00,,,0.00,WeatherSnoop3.0,2013-04-09 16:07:00,
2013-04-09 11:12:00,77.6,72.4,29.94,SE,142,0.0,-999.0,84,0.00,,,0.00,WeatherSnoop3.0,2013-04-09 16:12:00,
2013-04-09 11:17:00,77.7,72.5,29.94,SE,143,0.0,-999.0,84,0.00,,,0.00,WeatherSnoop3.0,2013-04-09 16:17:00,
2013-04-09 11:22:00,77.8,72.2,29.94,SE,136,0.0,-999.0,83,0.00,,,0.00,WeatherSnoop3.0,2013-04-09 16:22:00,
2013-04-09 11:27:00,78.0,72.8,29.94,ESE,107,0.0,-999.0,84,0.00,,,0.00,WeatherSnoop3.0,2013-04-09 16:27:00,
2013-04-09 11:32:00,78.4,72.4,29.94,ESE,119,0.0,-999.0,82,0.00,,,0.00,WeatherSnoop3.0,2013-04-09 16:32:00,
2013-04-09 11:37:00,78.8,72.8,29.94,SE,124,0.0,-999.0,82,0.00,,,0.00,WeatherSnoop3.0,2013-04-09 16:37:00,
2013-04-09 11:42:00,79.0,72.7,29.94,SE,136,0.0,-999.0,81,0.00,,,0.00,WeatherSnoop3.0,2013-04-09 16:42:00,
2013-04-09 11:47:00,79.2,72.9,29.94,SE,134,0.0,-999.0,81,0.00,,,0.00,WeatherSnoop3.0,2013-04-09 16:47:00,
2013-04-09 11:52:00,79.2,72.9,29.94,SE,140,0.0,-999.0,81,0.00,,,0.00,WeatherSnoop3.0,2013-04-09 16:52:00,
2013-04-09 11:57:00,79.6,72.9,29.94,SSE,147,0.0,-999.0,80,0.00,,,0.00,WeatherSnoop3.0,2013-04-09 16:57:00,
2013-04-09 12:02:00,79.6,73.2,29.94,South,173,0.0,-999.0,81,0.00,,,0.00,WeatherSnoop3.0,2013-04-09 17:02:00,
2013-04-09 12:07:00,79.8,73.1,29.93,SSE,155,0.0,-999.0,80,0.00,,,0.00,WeatherSnoop3.0,2013-04-09 17:07:00,
2013-04-09 12:12:00,79.9,73.2,29.93,SE,132,0.0,-999.0,80,0.00,,,0.00,WeatherSnoop3.0,2013-04-09 17:12:00,
2013-04-09 12:17:00,80.4,72.9,29.93,SE,146,0.0,-999.0,78,0.00,,,0.00,WeatherSnoop3.0,2013-04-09 17:17:00,
2013-04-09 12:22:00,80.9,73.0,29.93,SSE,167,0.0,-999.0,77,0.00,,,0.00,WeatherSnoop3.0,2013-04-09 17:22:00,
2013-04-09 12:27:00,81.0,73.1,29.92,SSE,150,0.0,-999.0,77,0.00,,,0.00,WeatherSnoop3.0,2013-04-09 17:27:00,
2013-04-09 12:32:00,81.6,73.3,29.92,SE,131,0.0,-999.0,76,0.00,,,0.00,WeatherSnoop3.0,2013-04-09 17:32:00,
2013-04-09 12:37:00,81.7,73.0,29.92,SSE,161,0.0,-999.0,75,0.00,,,0.00,WeatherSnoop3.0,2013-04-09 17:37:00,
2013-04-09 12:42:00,81.2,72.9,29.92,SE,125,0.0,-999.0,76,0.00,,,0.00,WeatherSnoop3.0,2013-04-09 17:42:00,
2013-04-09 12:47:00,81.3,73.0,29.92,SE,135,0.0,-999.0,76,0.00,,,0.00,WeatherSnoop3.0,2013-04-09 17:47:00,
2013-04-09 12:52:00,82.0,72.9,29.92,SSE,153,0.0,-999.0,74,0.00,,,0.00,WeatherSnoop3.0,2013-04-09 17:52:00,
2013-04-09 12:57:00,81.7,73.0,29.92,South,176,0.0,-999.0,75,0.00,,,0.00,WeatherSnoop3.0,2013-04-09 17:57:00,
2013-04-09 13:02:00,81.6,72.9,29.92,ESE,117,0.0,-999.0,75,0.00,,,0.00,WeatherSnoop3.0,2013-04-09 18:02:00,
2013-04-09 13:07:00,81.7,73.4,29.92,SE,142,0.0,-999.0,76,0.00,,,0.00,WeatherSnoop3.0,2013-04-09 18:07:00,
2013-04-09 13:12:00,81.2,72.5,29.92,South,173,0.0,-999.0,75,0.00,,,0.00,WeatherSnoop3.0,2013-04-09 18:12:00,
2013-04-09 13:17:00,81.1,72.8,29.91,SE,132,0.0,-999.0,76,0.00,,,0.00,WeatherSnoop3.0,2013-04-09 18:17:00,
2013-04-09 13:22:00,81.3,73.0,29.91,SE,144,0.0,-999.0,76,0.00,,,0.00,WeatherSnoop3.0,2013-04-09 18:22:00,
2013-04-09 13:27:00,81.8,73.5,29.91,South,173,0.0,-999.0,76,0.00,,,0.00,WeatherSnoop3.0,2013-04-09 18:27:00,
2013-04-09 13:32:00,81.5,72.8,29.91,SE,145,0.0,-999.0,75,0.00,,,0.00,WeatherSnoop3.0,2013-04-09 18:32:00,
2013-04-09 13:37:00,81.5,73.2,29.92,SE,130,0.0,-999.0,76,0.00,,,0.00,WeatherSnoop3.0,2013-04-09 18:37:00,
2013-04-09 13:42:00,80.9,72.6,29.91,SE,130,0.0,-999.0,76,0.00,,,0.00,WeatherSnoop3.0,2013-04-09 18:42:00,
2013-04-09 13:47:00,80.6,72.7,29.91,SSE,154,0.0,-999.0,77,0.00,,,0.00,WeatherSnoop3.0,2013-04-09 18:47:00,
2013-04-09 13:52:00,80.7,72.8,29.91,SE,136,0.0,-999.0,77,0.00,,,0.00,WeatherSnoop3.0,2013-04-09 18:52:00,
2013-04-09 13:57:00,80.6,72.7,29.91,SE,138,0.0,-999.0,77,0.00,,,0.00,WeatherSnoop3.0,2013-04-09 18:57:00,
2013-04-09 14:02:00,80.5,72.6,29.91,SSE,153,0.0,-999.0,77,0.00,,,0.00,WeatherSnoop3.0,2013-04-09 19:02:00,
2013-04-09 14:07:00,80.5,72.6,29.91,SSE,158,0.0,-999.0,77,0.00,,,0.00,WeatherSnoop3.0,2013-04-09 19:07:00,
2013-04-09 14:12:00,80.6,72.3,29.91,SE,142,0.0,-999.0,76,0.00,,,0.00,WeatherSnoop3.0,2013-04-09 19:12:00,
2013-04-09 14:17:00,80.8,72.9,29.91,SE,143,0.0,-999.0,77,0.00,,,0.00,WeatherSnoop3.0,2013-04-09 19:17:00,
2013-04-09 14:22:00,80.8,72.5,29.91,SE,138,0.0,-999.0,76,0.00,,,0.00,WeatherSnoop3.0,2013-04-09 19:22:00,
2013-04-09 14:27:00,80.5,72.6,29.92,SSE,148,0.0,-999.0,77,0.00,,,0.00,WeatherSnoop3.0,2013-04-09 19:27:00,
2013-04-09 14:32:00,80.5,72.2,29.91,SSE,150,0.0,-999.0,76,0.00,,,0.00,WeatherSnoop3.0,2013-04-09 19:32:00,
2013-04-09 14:37:00,80.4,72.5,29.91,SSE,153,0.0,-999.0,77,0.00,,,0.00,WeatherSnoop3.0,2013-04-09 19:37:00,
2013-04-09 14:42:00,80.7,73.2,29.91,SSE,151,0.0,-999.0,78,0.00,,,0.00,WeatherSnoop3.0,2013-04-09 19:42:00,
2013-04-09 14:47:00,81.1,72.8,29.91,SSE,167,0.0,-999.0,76,0.00,,,0.00,WeatherSnoop3.0,2013-04-09 19:47:00,
2013-04-09 14:52:00,80.9,72.6,29.91,SSW,193,0.0,-999.0,76,0.00,,,0.00,WeatherSnoop3.0,2013-04-09 19:52:00,
2013-04-09 14:57:00,80.7,72.8,29.90,SE,145,0.0,-999.0,77,0.00,,,0.00,WeatherSnoop3.0,2013-04-09 19:57:00,
2013-04-09 15:02:00,81.0,72.7,29.90,SSE,153,0.0,-999.0,76,0.00,,,0.00,WeatherSnoop3.0,2013-04-09 20:02:00,
2013-04-09 15:07:00,81.2,73.3,29.90,SE,124,0.0,-999.0,77,0.00,,,0.00,WeatherSnoop3.0,2013-04-09 20:07:00,
2013-04-09 15:12:00,81.1,73.2,29.90,SE,144,0.0,-999.0,77,0.00,,,0.00,WeatherSnoop3.0,2013-04-09 20:12:00,
2013-04-09 15:17:00,81.0,73.1,29.90,South,177,0.0,-999.0,77,0.00,,,0.00,WeatherSnoop3.0,2013-04-09 20:17:00,
2013-04-09 15:22:00,80.7,72.4,29.90,South,181,0.0,-999.0,76,0.00,,,0.00,WeatherSnoop3.0,2013-04-09 20:22:00,
2013-04-09 15:27:00,80.5,72.2,29.90,SSE,154,0.0,-999.0,76,0.00,,,0.00,WeatherSnoop3.0,2013-04-09 20:27:00,
2013-04-09 15:32:00,80.8,72.5,29.90,ESE,121,0.0,-999.0,76,0.00,,,0.00,WeatherSnoop3.0,2013-04-09 20:32:00,
2013-04-09 15:37:00,80.5,72.6,29.89,SE,143,0.0,-999.0,77,0.00,,,0.00,WeatherSnoop3.0,2013-04-09 20:37:00,
2013-04-09 15:42:00,80.5,72.6,29.90,SE,131,0.0,-999.0,77,0.00,,,0.00,WeatherSnoop3.0,2013-04-09 20:42:00,
2013-04-09 15:47:00,79.9,72.0,29.90,SE,136,0.0,-999.0,77,0.00,,,0.00,WeatherSnoop3.0,2013-04-09 20:47:00,
2013-04-09 15:52:00,79.6,72.1,29.90,SSE,163,0.0,-999.0,78,0.00,,,0.00,WeatherSnoop3.0,2013-04-09 20:52:00,
2013-04-09 15:57:00,79.5,72.0,29.90,SE,131,0.0,-999.0,78,0.00,,,0.00,WeatherSnoop3.0,2013-04-09 20:57:00,
2013-04-09 16:02:00,79.4,71.9,29.90,SSE,162,0.0,-999.0,78,0.00,,,0.00,WeatherSnoop3.0,2013-04-09 21:02:00,
2013-04-09 16:07:00,79.4,72.3,29.90,SSE,150,0.0,-999.0,79,0.00,,,0.00,WeatherSnoop3.0,2013-04-09 21:07:00,
2013-04-09 16:12:00,79.5,72.0,29.90,SE,146,0.0,-999.0,78,0.00,,,0.00,WeatherSnoop3.0,2013-04-09 21:12:00,
2013-04-09 16:17:00,79.6,72.1,29.90,South,178,0.0,-999.0,78,0.00,,,0.00,WeatherSnoop3.0,2013-04-09 21:17:00,
2013-04-09 16:22:00,79.6,72.1,29.91,SE,144,0.0,-999.0,78,0.00,,,0.00,WeatherSnoop3.0,2013-04-09 21:22:00,
2013-04-09 16:27:00,79.6,72.5,29.90,SSE,150,0.0,-999.0,79,0.00,,,0.00,WeatherSnoop3.0,2013-04-09 21:27:00,
2013-04-09 16:32:00,79.5,72.4,29.91,SE,142,0.0,-999.0,79,0.00,,,0.00,WeatherSnoop3.0,2013-04-09 21:32:00,
2013-04-09 16:37:00,79.4,72.3,29.91,SSE,157,0.0,-999.0,79,0.00,,,0.00,WeatherSnoop3.0,2013-04-09 21:37:00,
2013-04-09 16:42:00,79.2,72.5,29.91,ESE,123,0.0,-999.0,80,0.00,,,0.00,WeatherSnoop3.0,2013-04-09 21:42:00,
2013-04-09 16:47:00,79.1,72.4,29.91,SE,126,0.0,-999.0,80,0.00,,,0.00,WeatherSnoop3.0,2013-04-09 21:47:00,
2013-04-09 16:52:00,79.0,72.3,29.91,SE,140,0.0,-999.0,80,0.00,,,0.00,WeatherSnoop3.0,2013-04-09 21:52:00,
2013-04-09 16:57:00,79.1,72.4,29.91,SSE,150,0.0,-999.0,80,0.00,,,0.00,WeatherSnoop3.0,2013-04-09 21:57:00,
2013-04-09 17:02:00,79.4,72.3,29.91,ESE,123,0.0,-999.0,79,0.00,,,0.00,WeatherSnoop3.0,2013-04-09 22:02:00,
2013-04-09 17:07:00,80.0,72.9,29.91,SSE,150,0.0,-999.0,79,0.00,,,0.00,WeatherSnoop3.0,2013-04-09 22:07:00,
2013-04-09 17:12:00,80.3,72.8,29.91,SE,140,0.0,-999.0,78,0.00,,,0.00,WeatherSnoop3.0,2013-04-09 22:12:00,
2013-04-09 17:17:00,80.1,72.6,29.91,SSE,148,0.0,-999.0,78,0.00,,,0.00,WeatherSnoop3.0,2013-04-09 22:17:00,
2013-04-09 17:22:00,80.0,72.5,29.91,SE,134,0.0,-999.0,78,0.00,,,0.00,WeatherSnoop3.0,2013-04-09 22:22:00,
2013-04-09 17:27:00,79.8,72.3,29.91,South,172,0.0,-999.0,78,0.00,,,0.00,WeatherSnoop3.0,2013-04-09 22:27:00,
2013-04-09 17:32:00,79.7,72.6,29.91,SE,127,0.0,-999.0,79,0.00,,,0.00,WeatherSnoop3.0,2013-04-09 22:32:00,
2013-04-09 17:37:00,79.5,72.8,29.91,SSE,155,0.0,-999.0,80,0.00,,,0.00,WeatherSnoop3.0,2013-04-09 22:37:00,
2013-04-09 17:42:00,79.3,72.6,29.91,SE,142,0.0,-999.0,80,0.00,,,0.00,WeatherSnoop3.0,2013-04-09 22:42:00,
2013-04-09 17:47:00,79.1,72.8,29.91,SSE,148,0.0,-999.0,81,0.00,,,0.00,WeatherSnoop3.0,2013-04-09 22:47:00,
2013-04-09 17:52:00,78.7,72.4,29.90,SE,132,0.0,-999.0,81,0.00,,,0.00,WeatherSnoop3.0,2013-04-09 22:52:00,
2013-04-09 17:57:00,78.5,72.5,29.90,SE,136,0.0,-999.0,82,0.00,,,0.00,WeatherSnoop3.0,2013-04-09 22:57:00,
2013-04-09 18:02:00,78.4,72.4,29.90,ESE,109,0.0,-999.0,82,0.00,,,0.00,WeatherSnoop3.0,2013-04-09 23:02:00,
2013-04-09 18:07:00,78.4,72.4,29.90,SSE,148,0.0,-999.0,82,0.00,,,0.00,WeatherSnoop3.0,2013-04-09 23:07:00,
2013-04-09 18:12:00,78.4,72.4,29.90,SSE,149,0.0,-999.0,82,0.00,,,0.00,WeatherSnoop3.0,2013-04-09 23:12:00,
2013-04-09 18:17:00,78.3,72.3,29.89,SE,142,0.0,-999.0,82,0.00,,,0.00,WeatherSnoop3.0,2013-04-09 23:17:00,
2013-04-09 18:22:00,78.2,72.2,29.89,SSE,153,0.0,-999.0,82,0.00,,,0.00,WeatherSnoop3.0,2013-04-09 23:22:00,
2013-04-09 18:27:00,78.1,72.5,29.88,SSE,157,0.0,-999.0,83,0.00,,,0.00,WeatherSnoop3.0,2013-04-09 23:27:00,
2013-04-09 18:32:00,78.0,72.4,29.87,SE,133,0.0,-999.0,83,0.00,,,0.00,WeatherSnoop3.0,2013-04-09 23:32:00,
2013-04-09 18:37:00,77.8,72.2,29.87,SE,139,0.0,-999.0,83,0.00,,,0.00,WeatherSnoop3.0,2013-04-09 23:37:00,
2013-04-09 18:42:00,77.7,72.1,29.86,ESE,120,0.0,-999.0,83,0.00,,,0.00,WeatherSnoop3.0,2013-04-09 23:42:00,
2013-04-09 18:47:00,77.6,72.4,29.84,ESE,111,0.0,-999.0,84,0.00,,,0.00,WeatherSnoop3.0,2013-04-09 23:47:00,
2013-04-09 18:52:00,77.6,72.4,29.83,ESE,120,0.0,-999.0,84,0.00,,,0.00,WeatherSnoop3.0,2013-04-09 23:52:00,
2013-04-09 18:57:00,77.6,72.4,29.83,SSE,148,0.0,-999.0,84,0.00,,,0.00,WeatherSnoop3.0,2013-04-09 23:57:00,
2013-04-09 19:02:00,77.6,72.4,29.84,SE,126,0.0,-999.0,84,0.00,,,0.00,WeatherSnoop3.0,2013-04-10 00:02:00,
2013-04-09 19:07:00,77.5,72.3,29.85,SE,137,0.0,-999.0,84,0.00,,,0.00,WeatherSnoop3.0,2013-04-10 00:07:00,
2013-04-09 19:13:00,77.5,72.3,29.86,SSE,159,0.0,-999.0,84,0.00,,,0.00,WeatherSnoop3.0,2013-04-10 00:13:00,
2013-04-09 19:18:00,77.4,72.2,29.87,SE,144,0.0,-999.0,84,0.00,,,0.00,WeatherSnoop3.0,2013-04-10 00:18:00,
2013-04-09 19:23:00,77.4,71.8,29.88,ESE,105,0.0,-999.0,83,0.00,,,0.00,WeatherSnoop3.0,2013-04-10 00:23:00,
2013-04-09 19:28:00,77.3,71.7,29.88,SSE,148,0.0,-999.0,83,0.00,,,0.00,WeatherSnoop3.0,2013-04-10 00:28:00,
2013-04-09 19:33:00,77.3,71.7,29.88,SSE,148,0.0,-999.0,83,0.00,,,0.00,WeatherSnoop3.0,2013-04-10 00:33:00,
2013-04-09 19:38:00,77.2,71.6,29.89,SSE,160,0.0,-999.0,83,0.00,,,0.00,WeatherSnoop3.0,2013-04-10 00:38:00,
2013-04-09 19:43:00,77.1,71.5,29.89,SE,139,0.0,-999.0,83,0.00,,,0.00,WeatherSnoop3.0,2013-04-10 00:43:00,
2013-04-09 19:48:00,77.0,71.4,29.89,ESE,116,0.0,-999.0,83,0.00,,,0.00,WeatherSnoop3.0,2013-04-10 00:48:00,
2013-04-09 19:53:00,77.0,71.4,29.89,SSE,157,0.0,-999.0,83,0.00,,,0.00,WeatherSnoop3.0,2013-04-10 00:53:00,
2013-04-09 19:58:00,76.9,71.3,29.89,ESE,116,0.0,-999.0,83,0.00,,,0.00,WeatherSnoop3.0,2013-04-10 00:58:00,
2013-04-09 20:03:00,76.8,71.2,29.89,ESE,121,0.0,-999.0,83,0.00,,,0.00,WeatherSnoop3.0,2013-04-10 01:03:00,
2013-04-09 20:08:00,76.7,71.1,29.90,SE,133,0.0,-999.0,83,0.00,,,0.00,WeatherSnoop3.0,2013-04-10 01:08:00,
2013-04-09 20:13:00,76.7,71.1,29.90,SSE,159,0.0,-999.0,83,0.00,,,0.00,WeatherSnoop3.0,2013-04-10 01:13:00,
2013-04-09 20:18:00,76.7,71.1,29.91,ESE,123,0.0,-999.0,83,0.00,,,0.00,WeatherSnoop3.0,2013-04-10 01:18:00,
2013-04-09 20:23:00,76.8,71.2,29.91,ESE,121,0.0,-999.0,83,0.00,,,0.00,WeatherSnoop3.0,2013-04-10 01:23:00,
2013-04-09 20:28:00,76.8,71.2,29.91,SE,125,0.0,-999.0,83,0.00,,,0.00,WeatherSnoop3.0,2013-04-10 01:28:00,
2013-04-09 20:33:00,76.9,71.0,29.91,SSE,156,0.0,-999.0,82,0.00,,,0.00,WeatherSnoop3.0,2013-04-10 01:33:00,
2013-04-09 20:38:00,77.0,71.1,29.92,SE,140,0.0,-999.0,82,0.00,,,0.00,WeatherSnoop3.0,2013-04-10 01:38:00,
2013-04-09 20:43:00,77.0,71.1,29.91,SE,126,0.0,-999.0,82,0.00,,,0.00,WeatherSnoop3.0,2013-04-10 01:43:00,
2013-04-09 20:48:00,77.0,71.1,29.91,SSE,149,0.0,-999.0,82,0.00,,,0.00,WeatherSnoop3.0,2013-04-10 01:48:00,
2013-04-09 20:53:00,76.9,71.0,29.90,SE,128,0.0,-999.0,82,0.00,,,0.00,WeatherSnoop3.0,2013-04-10 01:53:00,
2013-04-09 20:58:00,76.9,71.3,29.90,ESE,119,0.0,-999.0,83,0.00,,,0.00,WeatherSnoop3.0,2013-04-10 01:58:00,
2013-04-09 21:03:00,76.8,71.2,29.90,ESE,115,0.0,-999.0,83,0.00,,,0.00,WeatherSnoop3.0,2013-04-10 02:03:00,
2013-04-09 21:08:00,76.7,71.1,29.90,SSE,149,0.0,-999.0,83,0.00,,,0.00,WeatherSnoop3.0,2013-04-10 02:08:00,
2013-04-09 21:13:00,76.6,71.0,29.90,SE,145,0.0,-999.0,83,0.00,,,0.00,WeatherSnoop3.0,2013-04-10 02:13:00,
2013-04-09 21:18:00,76.6,71.0,29.91,SSE,150,0.0,-999.0,83,0.00,,,0.00,WeatherSnoop3.0,2013-04-10 02:18:00,
2013-04-09 21:23:00,76.4,71.2,29.92,ESE,111,0.0,-999.0,84,0.00,,,0.00,WeatherSnoop3.0,2013-04-10 02:23:00,
2013-04-09 21:28:00,76.4,71.2,29.92,SSE,153,0.0,-999.0,84,0.00,,,0.00,WeatherSnoop3.0,2013-04-10 02:28:00,
2013-04-09 21:33:00,76.2,71.0,29.92,SE,130,0.0,-999.0,84,0.00,,,0.00,WeatherSnoop3.0,2013-04-10 02:33:00,
2013-04-09 21:38:00,76.3,71.4,29.92,SSE,149,0.0,-999.0,85,0.00,,,0.00,WeatherSnoop3.0,2013-04-10 02:38:00,
2013-04-09 21:43:00,76.4,71.5,29.92,SE,132,0.0,-999.0,85,0.00,,,0.00,WeatherSnoop3.0,2013-04-10 02:43:00,
2013-04-09 21:48:00,76.3,71.4,29.92,SSE,150,0.0,-999.0,85,0.00,,,0.00,WeatherSnoop3.0,2013-04-10 02:48:00,
2013-04-09 21:53:00,76.2,71.3,29.92,SE,141,0.0,-999.0,85,0.00,,,0.00,WeatherSnoop3.0,2013-04-10 02:53:00,
2013-04-09 21:58:00,76.2,71.3,29.93,ESE,123,0.0,-999.0,85,0.00,,,0.00,WeatherSnoop3.0,2013-04-10 02:58:00,
2013-04-09 22:03:00,76.2,71.7,29.93,SSE,147,0.0,-999.0,86,0.00,,,0.00,WeatherSnoop3.0,2013-04-10 03:03:00,
2013-04-09 22:08:00,76.2,71.7,29.94,SE,126,0.0,-999.0,86,0.00,,,0.00,WeatherSnoop3.0,2013-04-10 03:08:00,
2013-04-09 22:13:00,76.2,71.7,29.94,SE,134,0.0,-999.0,86,0.00,,,0.00,WeatherSnoop3.0,2013-04-10 03:13:00,
2013-04-09 22:18:00,76.1,71.6,29.94,SE,142,0.0,-999.0,86,0.00,,,0.00,WeatherSnoop3.0,2013-04-10 03:18:00,
2013-04-09 22:23:00,76.1,71.6,29.94,SSE,155,0.0,-999.0,86,0.00,,,0.00,WeatherSnoop3.0,2013-04-10 03:23:00,
2013-04-09 22:28:00,76.2,71.7,29.93,SE,146,0.0,-999.0,86,0.00,,,0.00,WeatherSnoop3.0,2013-04-10 03:28:00,
2013-04-09 22:33:00,76.2,71.7,29.93,SE,142,0.0,-999.0,86,0.00,,,0.00,WeatherSnoop3.0,2013-04-10 03:33:00,
2013-04-09 22:38:00,76.2,71.7,29.93,ESE,117,0.0,-999.0,86,0.00,,,0.00,WeatherSnoop3.0,2013-04-10 03:38:00,
2013-04-09 22:43:00,76.2,71.7,29.94,SSE,159,0.0,-999.0,86,0.00,,,0.00,WeatherSnoop3.0,2013-04-10 03:43:00,
2013-04-09 22:48:00,76.2,71.7,29.94,SE,129,0.0,-999.0,86,0.00,,,0.00,WeatherSnoop3.0,2013-04-10 03:48:00,
2013-04-09 22:53:00,76.1,71.9,29.93,SSE,163,0.0,-999.0,87,0.00,,,0.00,WeatherSnoop3.0,2013-04-10 03:53:00,
2013-04-09 22:58:00,76.2,72.0,29.93,SSE,147,0.0,-999.0,87,0.00,,,0.00,WeatherSnoop3.0,2013-04-10 03:58:00,
2013-04-09 23:00:00,76.1,71.9,29.93,SSE,150,0.0,-999.0,87,0.00,,,0.00,WeatherSnoop3.0,2013-04-10 04:00:00,
2013-04-09 23:05:00,76.1,71.9,29.92,SE,143,0.0,-999.0,87,0.00,,,0.00,WeatherSnoop3.0,2013-04-10 04:05:00,
2013-04-09 23:10:00,76.0,71.8,29.92,SE,146,0.0,-999.0,87,0.00,,,0.00,WeatherSnoop3.0,2013-04-10 04:10:00,
2013-04-09 23:15:00,75.9,71.7,29.91,SE,138,0.0,-999.0,87,0.00,,,0.00,WeatherSnoop3.0,2013-04-10 04:15:00,
2013-04-09 23:20:00,75.9,71.7,29.91,SE,145,0.0,-999.0,87,0.00,,,0.00,WeatherSnoop3.0,2013-04-10 04:20:00,
2013-04-09 23:25:00,75.8,71.6,29.91,SE,142,0.0,-999.0,87,0.00,,,0.00,WeatherSnoop3.0,2013-04-10 04:25:00,
2013-04-09 23:30:00,75.9,71.7,29.91,ESE,107,0.0,-999.0,87,0.00,,,0.00,WeatherSnoop3.0,2013-04-10 04:30:00,
2013-04-09 23:35:00,75.9,71.7,29.91,SE,128,0.0,-999.0,87,0.00,,,0.00,WeatherSnoop3.0,2013-04-10 04:35:00,
2013-04-09 23:40:00,76.0,71.8,29.91,SSE,150,0.0,-999.0,87,0.00,,,0.00,WeatherSnoop3.0,2013-04-10 04:40:00,
2013-04-09 23:45:00,76.0,71.8,29.92,SE,136,0.0,-999.0,87,0.00,,,0.00,WeatherSnoop3.0,2013-04-10 04:45:00,
2013-04-09 23:50:00,76.1,71.9,29.92,SE,140,0.0,-999.0,87,0.00,,,0.00,WeatherSnoop3.0,2013-04-10 04:50:00,
2013-04-09 23:55:00,76.1,71.9,29.92,ESE,119,0.0,-999.0,87,0.00,,,0.00,WeatherSnoop3.0,2013-04-10 04:55:00,